Time;durP1;ratioP1;P1;durP2;ratioP2;P2;SDS_P1;SDS_P2;PMS_P1;PMS_P2;Temp;Humidity;BMP_temperature;BMP_pressure;BME280_temperature;BME280_humidity;BME280_pressure;Samples;Min_cycle;Max_cycle;Signal;HPM_P1;HPM_P2
2021/10/31 00:00:05;;;;;;;77.00;40.17;;;11.10;99.90;;;;;;5049809;28;20464;-71
2021/10/31 00:02:31;;;;;;;71.90;40.85;;;11.10;99.90;;;;;;5055312;28;20021;-71
2021/10/31 00:04:56;;;;;;;74.82;40.55;;;11.20;99.90;;;;;;5045282;28;20018;-71
2021/10/31 00:07:22;;;;;;;68.55;38.88;;;11.20;99.90;;;;;;5035306;28;20040;-71
2021/10/31 00:09:48;;;;;;;71.07;38.97;;;11.10;99.90;;;;;;5034948;28;20116;-71
2021/10/31 00:12:14;;;;;;;71.93;39.90;;;11.10;99.90;;;;;;5034397;28;20038;-71
2021/10/31 00:14:40;;;;;;;73.25;41.33;;;11.10;99.90;;;;;;5034781;28;20104;-71
2021/10/31 00:17:05;;;;;;;80.95;41.60;;;11.10;99.90;;;;;;5034770;28;20036;-71
2021/10/31 00:19:31;;;;;;;74.15;40.58;;;11.20;99.90;;;;;;5034812;28;20017;-71
2021/10/31 00:21:57;;;;;;;71.43;41.25;;;11.20;99.90;;;;;;5035209;28;20021;-71
2021/10/31 00:24:23;;;;;;;74.72;40.35;;;11.20;99.90;;;;;;5033901;28;20037;-71
2021/10/31 00:26:48;;;;;;;70.50;39.88;;;11.20;99.90;;;;;;5034923;28;20037;-71
2021/10/31 00:29:16;;;;;;;74.45;39.92;;;11.20;99.90;;;;;;5033952;28;20105;-71
2021/10/31 00:31:41;;;;;;;67.95;39.90;;;11.20;99.90;;;;;;5034156;28;20080;-71
2021/10/31 00:34:07;;;;;;;72.65;38.67;;;11.20;99.90;;;;;;5034647;28;20033;-71
2021/10/31 00:36:32;;;;;;;72.22;40.63;;;11.20;99.90;;;;;;5033794;28;20508;-71
2021/10/31 00:38:58;;;;;;;80.60;42.05;;;11.20;99.90;;;;;;5037406;28;20022;-71
2021/10/31 00:41:24;;;;;;;71.28;41.20;;;11.20;99.90;;;;;;5048356;28;20029;-71
2021/10/31 00:43:49;;;;;;;72.13;41.13;;;11.20;99.90;;;;;;5033716;28;20488;-72
2021/10/31 00:46:15;;;;;;;73.55;41.25;;;11.20;99.90;;;;;;5032930;28;20099;-71
2021/10/31 00:48:41;;;;;;;69.95;40.60;;;11.20;99.90;;;;;;5033717;28;20029;-71
2021/10/31 00:51:07;;;;;;;79.57;42.80;;;11.30;99.90;;;;;;5032908;28;20026;-71
2021/10/31 00:53:33;;;;;;;68.60;41.47;;;11.30;99.90;;;;;;5033907;28;20511;-71
2021/10/31 00:56:02;;;;;;;60.70;38.00;;;11.30;99.90;;;;;;5034386;28;20358;-71
2021/10/31 00:58:28;;;;;;;77.57;41.67;;;11.30;99.90;;;;;;5048542;28;20035;-71
2021/10/31 01:00:53;;;;;;;65.55;39.63;;;11.30;99.90;;;;;;5045250;28;20025;-71
2021/10/31 01:03:19;;;;;;;65.68;38.35;;;11.30;99.90;;;;;;5035652;28;20021;-71
2021/10/31 01:05:51;;;;;;;72.55;39.95;;;11.30;99.90;;;;;;5033915;28;20026;-71
2021/10/31 01:08:22;;;;;;;80.22;39.03;;;11.30;99.90;;;;;;5033682;28;20045;-71
2021/10/31 01:11:04;;;;;;;74.63;42.20;;;11.30;99.90;;;;;;5036217;28;20029;-71
2021/10/31 01:13:41;;;;;;;74.43;40.70;;;11.20;99.90;;;;;;5033803;28;20079;-71
2021/10/31 01:16:22;;;;;;;78.55;40.60;;;11.20;99.90;;;;;;5033961;28;20025;-71
2021/10/31 01:19:12;;;;;;;71.07;39.00;;;11.20;99.90;;;;;;5033542;28;20370;-71
2021/10/31 01:22:00;;;;;;;68.95;39.30;;;11.20;99.90;;;;;;5033357;28;20052;-71
2021/10/31 01:24:53;;;;;;;72.47;41.28;;;11.20;99.90;;;;;;5033017;28;20607;-71
2021/10/31 01:27:45;;;;;;;81.80;42.47;;;11.20;99.90;;;;;;5033198;28;20037;-71
2021/10/31 01:30:37;;;;;;;80.25;42.70;;;11.20;99.90;;;;;;5032935;28;20505;-71
2021/10/31 01:33:19;;;;;;;78.57;45.00;;;11.20;99.90;;;;;;5032990;28;20040;-71
2021/10/31 01:35:53;;;;;;;85.60;44.65;;;11.20;99.90;;;;;;5048665;28;20032;-71
2021/10/31 01:38:34;;;;;;;97.45;48.42;;;11.30;99.90;;;;;;5033461;28;20029;-71
2021/10/31 01:41:16;;;;;;;95.63;46.22;;;11.30;99.90;;;;;;5034064;28;20112;-71
2021/10/31 01:43:58;;;;;;;77.03;44.70;;;11.20;99.90;;;;;;5052296;28;20049;-71
2021/10/31 01:46:45;;;;;;;81.13;45.80;;;11.20;99.90;;;;;;5053274;28;20430;-71
2021/10/31 01:49:26;;;;;;;96.35;48.72;;;11.20;99.90;;;;;;5043565;28;20477;-71
2021/10/31 01:51:59;;;;;;;82.03;44.13;;;11.20;99.90;;;;;;5032571;28;20037;-71
2021/10/31 01:54:43;;;;;;;82.95;45.15;;;11.10;99.90;;;;;;5032633;28;20116;-71
2021/10/31 01:57:11;;;;;;;77.25;42.05;;;11.10;99.90;;;;;;5041504;28;20025;-71
2021/10/31 01:59:42;;;;;;;80.22;41.63;;;11.00;99.90;;;;;;5041516;28;20053;-71
2021/10/31 02:02:10;;;;;;;82.35;41.58;;;11.00;99.90;;;;;;5032771;28;20489;-71
2021/10/31 02:04:37;;;;;;;80.47;42.25;;;11.00;99.90;;;;;;5033045;28;20034;-71
2021/10/31 02:07:04;;;;;;;79.53;40.20;;;10.90;99.90;;;;;;5047901;28;20033;-71
2021/10/31 02:09:32;;;;;;;78.03;41.42;;;10.80;99.90;;;;;;5033064;28;20025;-71
2021/10/31 02:12:00;;;;;;;75.15;42.55;;;10.80;99.90;;;;;;5032714;28;20034;-71
2021/10/31 02:14:26;;;;;;;84.78;44.13;;;10.80;99.90;;;;;;5032885;28;20396;-71
2021/10/31 02:16:55;;;;;;;77.00;45.10;;;10.80;99.90;;;;;;5032981;28;20101;-71
2021/10/31 02:19:34;;;;;;;99.43;47.85;;;10.80;99.90;;;;;;5032427;28;20040;-71
2021/10/31 02:22:03;;;;;;;89.25;46.38;;;10.70;99.90;;;;;;5032729;28;20028;-71
2021/10/31 02:24:29;;;;;;;85.32;42.60;;;10.70;99.90;;;;;;5032818;28;20113;-71
2021/10/31 02:26:56;;;;;;;81.18;42.55;;;10.70;99.90;;;;;;5032916;28;20500;-72
2021/10/31 02:29:21;;;;;;;83.32;44.38;;;10.60;99.90;;;;;;5033139;28;20025;-71
2021/10/31 02:31:47;;;;;;;88.70;45.33;;;10.70;99.90;;;;;;5032312;28;20051;-71
2021/10/31 02:34:13;;;;;;;98.95;49.60;;;10.70;99.90;;;;;;5032231;28;20048;-71
2021/10/31 02:36:39;;;;;;;96.22;47.22;;;10.80;99.90;;;;;;5033082;28;20022;-71
2021/10/31 02:39:06;;;;;;;116.32;54.80;;;10.90;99.90;;;;;;5032913;28;20021;-72
2021/10/31 02:41:33;;;;;;;94.07;48.25;;;10.90;99.90;;;;;;5032768;28;20029;-71
2021/10/31 02:44:00;;;;;;;88.13;49.10;;;11.00;99.90;;;;;;5032498;28;20052;-71
2021/10/31 02:46:30;;;;;;;91.22;49.15;;;10.90;99.90;;;;;;5032265;28;20025;-71
2021/10/31 02:48:57;;;;;;;106.20;50.53;;;11.00;99.90;;;;;;5032293;28;20021;-71
2021/10/31 02:51:41;;;;;;;96.35;50.90;;;11.10;99.90;;;;;;5032949;28;20037;-71
2021/10/31 02:54:44;;;;;;;97.10;50.03;;;11.10;99.90;;;;;;5035501;28;20030;-71
2021/10/31 02:57:17;;;;;;;96.68;54.13;;;11.20;99.90;;;;;;5036618;28;20437;-71
2021/10/31 02:59:48;;;;;;;101.70;54.05;;;11.20;99.90;;;;;;5036545;28;20025;-71
2021/10/31 03:02:15;;;;;;;107.10;55.78;;;11.30;99.90;;;;;;5035744;28;20037;-71
2021/10/31 03:04:41;;;;;;;104.63;55.55;;;11.30;99.90;;;;;;5036289;28;20056;-71
2021/10/31 03:07:07;;;;;;;117.18;54.92;;;11.40;99.90;;;;;;5036714;28;20426;-71
2021/10/31 03:09:32;;;;;;;114.38;58.03;;;11.30;99.90;;;;;;5036491;28;20469;-71
2021/10/31 03:12:00;;;;;;;104.88;55.92;;;11.30;99.90;;;;;;5035408;28;20037;-71
2021/10/31 03:14:25;;;;;;;114.40;57.47;;;11.30;99.90;;;;;;5051279;28;20029;-71
2021/10/31 03:16:51;;;;;;;107.05;58.13;;;11.30;99.90;;;;;;5036244;28;20385;-71
2021/10/31 03:19:17;;;;;;;125.15;57.95;;;11.30;99.90;;;;;;5051259;28;20028;-71
2021/10/31 03:21:42;;;;;;;113.55;58.28;;;11.30;99.90;;;;;;5035071;28;20030;-71
2021/10/31 03:24:08;;;;;;;105.22;56.03;;;11.30;99.90;;;;;;5051175;28;20071;-71
2021/10/31 03:26:33;;;;;;;104.57;54.00;;;11.30;99.90;;;;;;5035847;28;20036;-71
2021/10/31 03:28:59;;;;;;;106.15;53.85;;;11.20;99.90;;;;;;5035784;28;20442;-71
2021/10/31 03:31:24;;;;;;;107.75;53.40;;;11.20;99.90;;;;;;5030252;28;20037;-71
2021/10/31 03:33:50;;;;;;;105.15;50.90;;;11.20;99.90;;;;;;5026672;28;20047;-71
2021/10/31 03:36:16;;;;;;;111.80;53.85;;;11.10;99.90;;;;;;5041140;28;20041;-71
2021/10/31 03:38:41;;;;;;;103.45;53.33;;;11.10;99.90;;;;;;5035613;28;20507;-71
2021/10/31 03:41:07;;;;;;;101.25;53.83;;;11.00;99.90;;;;;;5035492;28;20021;-71
2021/10/31 03:43:32;;;;;;;92.35;51.85;;;11.00;99.90;;;;;;5034551;28;20037;-71
2021/10/31 03:45:58;;;;;;;119.03;56.90;;;10.90;99.90;;;;;;5035426;28;20028;-71
2021/10/31 03:48:23;;;;;;;106.70;55.10;;;10.90;99.90;;;;;;5035946;28;20024;-71
2021/10/31 03:50:49;;;;;;;119.75;57.42;;;10.90;99.90;;;;;;5044620;28;20028;-71
2021/10/31 03:53:14;;;;;;;98.95;56.20;;;10.90;99.90;;;;;;5042630;28;20079;-71
2021/10/31 03:55:40;;;;;;;102.07;53.88;;;11.00;99.90;;;;;;5049760;28;20108;-71
2021/10/31 03:58:06;;;;;;;112.28;54.38;;;11.00;99.90;;;;;;5034688;28;20507;-71
2021/10/31 04:00:31;;;;;;;120.85;56.20;;;11.00;99.90;;;;;;5036343;28;20061;-71
2021/10/31 04:02:57;;;;;;;118.20;55.85;;;11.10;99.90;;;;;;5035177;28;20479;-71
2021/10/31 04:05:23;;;;;;;104.82;54.72;;;11.10;99.90;;;;;;5034068;28;20029;-71
2021/10/31 04:07:48;;;;;;;105.25;54.05;;;11.10;99.90;;;;;;5033132;28;20120;-71
2021/10/31 04:10:14;;;;;;;125.88;54.20;;;11.10;99.90;;;;;;5034953;28;20025;-71
2021/10/31 04:12:40;;;;;;;109.32;54.70;;;11.10;99.90;;;;;;5043573;28;20025;-71
2021/10/31 04:15:06;;;;;;;110.35;53.00;;;11.10;99.90;;;;;;5034765;28;20029;-71
2021/10/31 04:17:33;;;;;;;122.85;53.55;;;11.10;99.90;;;;;;5035000;28;20033;-71
2021/10/31 04:19:59;;;;;;;100.80;53.83;;;11.10;99.90;;;;;;5032980;28;20442;-71
2021/10/31 04:22:26;;;;;;;106.57;53.08;;;11.10;99.90;;;;;;5034777;28;20038;-71
2021/10/31 04:24:52;;;;;;;112.90;56.88;;;11.10;99.90;;;;;;5034068;28;20025;-71
2021/10/31 04:27:17;;;;;;;114.07;57.75;;;11.10;99.90;;;;;;5035323;28;20060;-71
2021/10/31 04:29:43;;;;;;;122.10;57.92;;;11.10;99.90;;;;;;5045536;28;20097;-71
2021/10/31 04:32:09;;;;;;;103.40;54.67;;;11.10;99.90;;;;;;5047039;28;20025;-71
2021/10/31 04:34:35;;;;;;;106.95;54.60;;;11.10;99.90;;;;;;5038297;28;20025;-71
2021/10/31 04:37:02;;;;;;;110.38;56.05;;;11.10;99.90;;;;;;5034178;28;20421;-71
2021/10/31 04:39:28;;;;;;;116.20;56.00;;;11.10;99.90;;;;;;5049727;28;20366;-71
2021/10/31 04:42:01;;;;;;;122.68;57.90;;;11.10;99.90;;;;;;5033872;28;20032;-71
2021/10/31 04:44:27;;;;;;;108.63;57.95;;;11.10;99.90;;;;;;5033798;28;20366;-71
2021/10/31 04:46:52;;;;;;;115.40;54.63;;;11.10;99.90;;;;;;5034241;28;20032;-71
2021/10/31 04:49:18;;;;;;;102.55;53.50;;;11.10;99.90;;;;;;5034025;28;20029;-71
2021/10/31 04:51:43;;;;;;;113.50;57.63;;;11.10;99.90;;;;;;5034111;28;20037;-71
2021/10/31 04:54:09;;;;;;;108.20;54.70;;;11.10;99.90;;;;;;5048456;28;20037;-71
2021/10/31 04:56:34;;;;;;;107.60;53.33;;;11.10;99.90;;;;;;5033523;28;20044;-71
2021/10/31 04:59:00;;;;;;;97.70;50.92;;;11.10;99.90;;;;;;5033859;28;20033;-71
2021/10/31 05:01:25;;;;;;;101.72;53.20;;;11.10;99.90;;;;;;5033920;28;20112;-71
2021/10/31 05:03:51;;;;;;;96.20;51.70;;;11.10;99.90;;;;;;5033564;28;20014;-71
2021/10/31 05:06:17;;;;;;;104.22;49.35;;;11.10;99.90;;;;;;5033136;28;20396;-71
2021/10/31 05:08:42;;;;;;;103.68;50.13;;;11.10;99.90;;;;;;5033748;28;20369;-71
2021/10/31 05:11:09;;;;;;;98.25;53.20;;;11.00;99.90;;;;;;5033400;28;20439;-71
2021/10/31 05:13:35;;;;;;;94.60;49.13;;;11.00;99.90;;;;;;5033500;28;20022;-71
2021/10/31 05:16:00;;;;;;;103.60;50.97;;;11.10;99.90;;;;;;5035105;28;20373;-71
2021/10/31 05:18:26;;;;;;;113.13;52.10;;;11.10;99.90;;;;;;5043845;28;20032;-71
2021/10/31 05:20:52;;;;;;;108.10;51.60;;;11.10;99.90;;;;;;5037868;28;20076;-71
2021/10/31 05:23:17;;;;;;;108.70;50.83;;;11.20;99.90;;;;;;5040666;28;20088;-71
2021/10/31 05:25:43;;;;;;;103.88;48.67;;;11.10;99.90;;;;;;5032716;28;20068;-71
2021/10/31 05:28:09;;;;;;;101.40;50.38;;;11.20;99.90;;;;;;5013809;28;20049;-71
2021/10/31 05:30:34;;;;;;;90.65;49.08;;;11.10;99.90;;;;;;5013711;28;20407;-71
2021/10/31 05:33:00;;;;;;;84.72;48.28;;;11.20;99.90;;;;;;5019992;28;20447;-71
2021/10/31 05:35:26;;;;;;;96.40;47.53;;;11.20;99.90;;;;;;5033285;28;20543;-71
2021/10/31 05:37:57;;;;;;;100.63;47.05;;;11.10;99.90;;;;;;5022788;28;20500;-71
2021/10/31 05:40:24;;;;;;;100.97;45.88;;;11.10;99.90;;;;;;5013681;28;20438;-71
2021/10/31 05:42:50;;;;;;;94.10;45.80;;;11.00;99.90;;;;;;5025502;28;20025;-71
2021/10/31 05:45:15;;;;;;;92.80;47.58;;;11.00;99.90;;;;;;5045275;28;20477;-71
2021/10/31 05:47:43;;;;;;;91.40;43.35;;;10.90;99.90;;;;;;5048677;28;20040;-71
2021/10/31 05:50:11;;;;;;;90.68;45.13;;;10.90;99.90;;;;;;5035157;28;20033;-71
2021/10/31 05:52:37;;;;;;;93.65;46.08;;;10.80;99.90;;;;;;5033457;28;20052;-71
2021/10/31 05:55:05;;;;;;;107.03;47.80;;;10.80;99.90;;;;;;5032749;28;20037;-71
2021/10/31 05:57:31;;;;;;;94.35;47.25;;;10.70;99.90;;;;;;5041780;28;20025;-71
2021/10/31 05:59:57;;;;;;;106.85;48.00;;;10.60;99.90;;;;;;5040354;28;20484;-71
2021/10/31 06:02:22;;;;;;;103.28;48.13;;;10.50;99.90;;;;;;5048494;28;20034;-71
2021/10/31 06:04:48;;;;;;;106.47;49.40;;;10.50;99.90;;;;;;5033369;28;20041;-71
2021/10/31 06:07:14;;;;;;;95.50;47.50;;;10.60;99.90;;;;;;5033040;28;20032;-71
2021/10/31 06:09:40;;;;;;;95.43;48.00;;;10.60;99.90;;;;;;5044294;28;20021;-71
2021/10/31 06:12:07;;;;;;;104.50;48.35;;;10.60;99.90;;;;;;5036709;28;20104;-71
2021/10/31 06:14:36;;;;;;;112.15;50.80;;;10.60;99.90;;;;;;5032113;28;20026;-71
2021/10/31 06:17:03;;;;;;;115.47;52.08;;;10.60;99.90;;;;;;5032915;28;20026;-71
2021/10/31 06:19:30;;;;;;;102.90;50.63;;;10.50;99.90;;;;;;5032322;28;20022;-71
2021/10/31 06:21:55;;;;;;;116.82;50.70;;;10.60;99.90;;;;;;5032978;28;20025;-71
2021/10/31 06:24:21;;;;;;;98.38;50.15;;;10.50;99.90;;;;;;5032003;28;20365;-71
2021/10/31 06:26:47;;;;;;;89.82;48.33;;;10.40;99.90;;;;;;5048258;28;20029;-71
2021/10/31 06:29:13;;;;;;;91.90;47.13;;;10.30;99.90;;;;;;5036797;28;20080;-71
2021/10/31 06:31:39;;;;;;;93.03;45.05;;;10.20;99.90;;;;;;5036378;28;20040;-71
2021/10/31 06:34:05;;;;;;;89.47;43.92;;;10.10;99.90;;;;;;5036599;28;20056;-71
2021/10/31 06:36:30;;;;;;;98.97;46.25;;;10.10;99.90;;;;;;5035960;28;20037;-71
2021/10/31 06:38:56;;;;;;;100.90;46.47;;;10.00;99.90;;;;;;5036463;28;20021;-71
2021/10/31 06:41:22;;;;;;;112.78;47.03;;;9.90;99.90;;;;;;5036094;28;20026;-71
2021/10/31 06:43:47;;;;;;;89.85;45.95;;;9.90;99.90;;;;;;5036434;28;20029;-71
2021/10/31 06:46:13;;;;;;;105.40;45.25;;;9.80;99.90;;;;;;5036200;28;20578;-71
2021/10/31 06:48:39;;;;;;;110.65;45.55;;;9.80;99.90;;;;;;5036411;28;20388;-71
2021/10/31 06:51:04;;;;;;;111.90;44.72;;;9.80;99.90;;;;;;5035920;28;20452;-71
2021/10/31 06:53:30;;;;;;;99.75;44.38;;;9.80;99.90;;;;;;5036205;28;20079;-71
2021/10/31 06:55:56;;;;;;;81.30;41.22;;;9.70;99.90;;;;;;5035524;28;20272;-71
2021/10/31 06:58:21;;;;;;;98.65;42.28;;;9.50;99.90;;;;;;5036644;28;20022;-71
2021/10/31 07:00:47;;;;;;;91.72;43.70;;;9.50;99.90;;;;;;5035763;28;20100;-71
2021/10/31 07:03:12;;;;;;;106.15;44.97;;;9.50;99.90;;;;;;5036513;28;20025;-71
2021/10/31 07:05:38;;;;;;;115.03;48.08;;;9.70;99.90;;;;;;5047573;28;20037;-71
2021/10/31 07:08:04;;;;;;;98.65;41.53;;;9.80;99.90;;;;;;5036116;28;20087;-71
2021/10/31 07:10:30;;;;;;;106.18;46.08;;;9.80;99.90;;;;;;5052189;28;20094;-71
2021/10/31 07:12:55;;;;;;;99.82;44.75;;;9.90;99.90;;;;;;5056118;28;20494;-71
2021/10/31 07:15:21;;;;;;;119.65;47.70;;;10.00;99.90;;;;;;5055815;28;20036;-71
2021/10/31 07:17:46;;;;;;;114.28;46.85;;;10.10;99.90;;;;;;5037012;28;20041;-71
2021/10/31 07:20:13;;;;;;;97.43;41.17;;;10.20;99.90;;;;;;5035972;28;20087;-71
2021/10/31 07:22:41;;;;;;;96.80;43.28;;;10.30;99.90;;;;;;5036190;28;20175;-71
2021/10/31 07:25:08;;;;;;;88.25;41.40;;;10.30;99.90;;;;;;5035223;28;20554;-71
2021/10/31 07:27:34;;;;;;;92.32;43.40;;;10.40;99.90;;;;;;5035034;28;20092;-71
2021/10/31 07:29:59;;;;;;;103.80;43.88;;;10.50;99.90;;;;;;5035646;28;20416;-71
2021/10/31 07:32:25;;;;;;;90.45;41.17;;;10.50;99.90;;;;;;5035573;28;20030;-71
2021/10/31 07:34:51;;;;;;;95.20;42.47;;;10.60;99.90;;;;;;5035481;28;20021;-72
2021/10/31 07:37:17;;;;;;;86.22;41.92;;;10.70;99.90;;;;;;5034808;28;20104;-71
2021/10/31 07:39:44;;;;;;;86.32;39.88;;;10.70;99.90;;;;;;5034186;28;20025;-71
2021/10/31 07:42:10;;;;;;;91.68;41.58;;;10.80;99.90;;;;;;5035347;28;20014;-71
2021/10/31 07:44:35;;;;;;;85.32;38.83;;;10.80;99.90;;;;;;5035253;28;20029;-71
2021/10/31 07:47:01;;;;;;;89.72;38.92;;;10.90;99.90;;;;;;5034643;28;20068;-71
2021/10/31 07:49:27;;;;;;;91.57;41.38;;;11.00;99.90;;;;;;5034645;28;20033;-71
2021/10/31 07:51:53;;;;;;;89.18;39.70;;;10.90;99.90;;;;;;5035343;28;20108;-71
2021/10/31 07:54:24;;;;;;;76.63;37.88;;;10.90;99.90;;;;;;5035045;28;20025;-71
2021/10/31 07:56:51;;;;;;;87.82;39.38;;;10.90;99.90;;;;;;5048943;28;20030;-71
2021/10/31 07:59:17;;;;;;;81.78;37.85;;;10.90;99.90;;;;;;5033897;28;20026;-71
2021/10/31 08:01:42;;;;;;;84.20;39.38;;;10.90;99.90;;;;;;5034988;28;20021;-71
2021/10/31 08:04:08;;;;;;;83.20;36.78;;;10.90;99.90;;;;;;5035002;28;20021;-71
2021/10/31 08:06:34;;;;;;;80.13;37.35;;;10.90;99.90;;;;;;5050400;28;20021;-71
2021/10/31 08:09:00;;;;;;;78.45;35.22;;;10.90;99.90;;;;;;5033930;28;20080;-71
2021/10/31 08:11:25;;;;;;;77.20;37.55;;;10.90;99.90;;;;;;5034081;28;20075;-71
2021/10/31 08:13:51;;;;;;;72.28;36.17;;;10.90;99.90;;;;;;5034461;28;20025;-71
2021/10/31 08:16:16;;;;;;;70.85;35.83;;;10.80;99.90;;;;;;5034778;28;20033;-71
2021/10/31 08:18:42;;;;;;;72.57;34.60;;;10.90;99.90;;;;;;5034944;28;20465;-71
2021/10/31 08:21:09;;;;;;;68.35;33.15;;;10.90;99.90;;;;;;5034586;28;20041;-71
2021/10/31 08:23:34;;;;;;;55.67;31.15;;;10.90;99.90;;;;;;5033887;28;20025;-71
2021/10/31 08:26:01;;;;;;;63.30;33.17;;;10.90;99.90;;;;;;5034158;28;20397;-71
2021/10/31 08:28:27;;;;;;;68.05;33.40;;;10.90;99.90;;;;;;5037171;28;20094;-71
2021/10/31 08:31:00;;;;;;;67.90;34.45;;;10.90;99.90;;;;;;5044310;28;20552;-71
2021/10/31 08:33:34;;;;;;;70.57;33.85;;;10.90;99.90;;;;;;5033920;28;20041;-71
2021/10/31 08:36:02;;;;;;;71.45;36.25;;;10.80;99.90;;;;;;5034547;28;20033;-71
2021/10/31 08:38:28;;;;;;;79.30;36.85;;;10.90;99.90;;;;;;5032569;28;20113;-71
2021/10/31 08:40:55;;;;;;;64.45;33.80;;;10.90;99.90;;;;;;5014653;28;20620;-71
2021/10/31 08:43:21;;;;;;;66.53;33.30;;;10.90;99.90;;;;;;5024503;28;20025;-71
2021/10/31 08:45:48;;;;;;;62.50;34.08;;;10.90;99.90;;;;;;5033826;28;20179;-71
2021/10/31 08:48:15;;;;;;;58.10;32.67;;;11.00;99.90;;;;;;5034271;28;20029;-71
2021/10/31 08:50:41;;;;;;;66.28;33.45;;;11.10;99.90;;;;;;5033283;28;20480;-71
2021/10/31 08:53:08;;;;;;;51.13;31.17;;;11.10;99.90;;;;;;5034239;28;20523;-71
2021/10/31 08:55:35;;;;;;;67.82;30.40;;;11.20;99.90;;;;;;5033656;28;20121;-71
2021/10/31 08:58:04;;;;;;;64.05;32.58;;;11.10;99.90;;;;;;5034009;28;20079;-71
2021/10/31 09:00:30;;;;;;;62.88;29.77;;;11.10;99.90;;;;;;5033492;28;20018;-71
2021/10/31 09:02:55;;;;;;;52.35;27.80;;;11.10;99.90;;;;;;5032813;28;20439;-71
2021/10/31 09:05:21;;;;;;;55.38;29.98;;;11.20;99.90;;;;;;5033702;28;20476;-71
2021/10/31 09:07:46;;;;;;;51.03;29.30;;;11.30;99.90;;;;;;5033526;28;20048;-71
2021/10/31 09:10:12;;;;;;;53.85;29.88;;;11.30;99.90;;;;;;5051299;28;20037;-71
2021/10/31 09:12:37;;;;;;;45.67;28.23;;;11.30;99.90;;;;;;5040567;28;20025;-71
2021/10/31 09:15:03;;;;;;;48.00;27.65;;;11.40;99.90;;;;;;5053070;28;20433;-71
2021/10/31 09:17:29;;;;;;;45.45;26.10;;;11.40;99.90;;;;;;5033700;28;20079;-72
2021/10/31 09:19:55;;;;;;;47.42;27.23;;;11.40;99.90;;;;;;5033657;28;20021;-71
2021/10/31 09:22:20;;;;;;;40.13;26.98;;;11.30;99.90;;;;;;5033765;28;20028;-71
2021/10/31 09:24:46;;;;;;;43.75;27.73;;;11.20;99.90;;;;;;5019699;28;20551;-71
2021/10/31 09:27:11;;;;;;;45.65;26.77;;;11.20;99.90;;;;;;5033794;28;20536;-72
2021/10/31 09:29:37;;;;;;;49.22;27.98;;;11.20;99.90;;;;;;5032243;28;20029;-71
2021/10/31 09:32:03;;;;;;;55.63;28.05;;;11.30;99.90;;;;;;5033802;28;20076;-71
2021/10/31 09:34:29;;;;;;;60.88;26.83;;;11.30;99.90;;;;;;5032785;28;20059;-71
2021/10/31 09:36:56;;;;;;;48.85;27.70;;;11.30;99.90;;;;;;5033160;28;20071;-72
2021/10/31 09:39:22;;;;;;;46.95;28.17;;;11.30;99.90;;;;;;5033330;28;20017;-72
2021/10/31 09:41:49;;;;;;;44.63;28.45;;;11.30;99.90;;;;;;5039548;28;20040;-72
2021/10/31 09:44:30;;;;;;;62.25;29.63;;;11.30;99.90;;;;;;5033423;28;20091;-72
2021/10/31 09:46:56;;;;;;;55.20;27.40;;;11.30;99.90;;;;;;5047167;28;20032;-72
2021/10/31 09:49:22;;;;;;;47.78;28.75;;;11.30;99.90;;;;;;5031032;28;20026;-72
2021/10/31 09:51:51;;;;;;;45.63;27.90;;;11.30;99.90;;;;;;5020135;28;20021;-71
2021/10/31 09:54:17;;;;;;;48.42;29.23;;;11.30;99.90;;;;;;5051850;28;20036;-71
2021/10/31 09:56:43;;;;;;;49.40;31.23;;;11.30;99.90;;;;;;5031652;28;20493;-72
2021/10/31 09:59:12;;;;;;;57.17;31.73;;;11.50;99.90;;;;;;5039670;28;20384;-72
2021/10/31 10:02:11;;;;;;;45.58;30.10;;;11.50;99.90;;;;;;5032551;28;20014;-73
2021/10/31 10:04:58;;;;;;;48.83;29.55;;;11.60;99.90;;;;;;5020250;28;20029;-71
2021/10/31 10:07:23;;;;;;;55.67;30.80;;;11.70;99.90;;;;;;5032461;28;20021;-72
2021/10/31 10:09:54;;;;;;;57.58;30.35;;;11.60;99.90;;;;;;5034085;28;20083;-71
2021/10/31 10:12:22;;;;;;;68.13;31.65;;;11.70;99.90;;;;;;5036439;28;20064;-72
2021/10/31 10:14:55;;;;;;;56.17;30.65;;;11.60;99.90;;;;;;5044207;28;20032;-72
2021/10/31 10:17:20;;;;;;;50.20;31.45;;;11.70;99.90;;;;;;5036723;28;20101;-72
2021/10/31 10:19:55;;;;;;;52.20;30.75;;;11.70;99.90;;;;;;5032713;28;20112;-72
2021/10/31 10:22:23;;;;;;;49.45;28.90;;;11.60;99.90;;;;;;5031778;28;20096;-76
2021/10/31 10:24:58;;;;;;;47.20;29.10;;;11.60;99.90;;;;;;5032624;28;20052;-76
2021/10/31 10:27:26;;;;;;;53.53;32.58;;;11.70;99.90;;;;;;5031858;28;20029;-74
2021/10/31 10:29:52;;;;;;;57.40;34.15;;;11.80;99.90;;;;;;5031459;28;20108;-72
2021/10/31 10:32:24;;;;;;;58.58;32.75;;;11.70;99.90;;;;;;5033088;28;20094;-72
2021/10/31 10:34:52;;;;;;;61.88;35.63;;;11.70;99.90;;;;;;5032585;28;20030;-72
2021/10/31 10:37:28;;;;;;;55.50;35.72;;;11.80;99.90;;;;;;5029432;28;20021;-72
2021/10/31 10:40:03;;;;;;;63.20;37.72;;;11.80;99.90;;;;;;5032799;28;20074;-72
2021/10/31 10:42:38;;;;;;;56.67;34.53;;;11.90;99.90;;;;;;5032725;28;20025;-72
2021/10/31 10:45:06;;;;;;;65.85;37.50;;;12.00;99.90;;;;;;5032138;28;20052;-71
2021/10/31 10:47:32;;;;;;;63.20;39.53;;;12.10;99.90;;;;;;5032753;28;20032;-72
2021/10/31 10:50:00;;;;;;;66.63;41.85;;;12.20;99.90;;;;;;5032071;28;20025;-72
2021/10/31 10:52:31;;;;;;;64.65;43.08;;;12.30;99.90;;;;;;5032742;28;20037;-72
2021/10/31 10:55:02;;;;;;;58.97;40.30;;;12.40;99.90;;;;;;5042226;28;20036;-72
2021/10/31 10:57:32;;;;;;;67.75;41.17;;;12.60;99.90;;;;;;5040333;28;20028;-72
2021/10/31 11:00:04;;;;;;;68.03;44.58;;;12.80;99.90;;;;;;5044198;28;20051;-72
2021/10/31 11:02:30;;;;;;;64.20;45.55;;;12.90;99.90;;;;;;5047278;28;20049;-72
2021/10/31 11:05:02;;;;;;;68.20;43.60;;;12.90;99.90;;;;;;5031976;28;20111;-72
2021/10/31 11:07:43;;;;;;;66.07;42.60;;;12.90;99.90;;;;;;5032157;28;20034;-72
2021/10/31 11:10:21;;;;;;;53.15;35.92;;;12.90;99.90;;;;;;5032589;28;20025;-72
2021/10/31 11:12:50;;;;;;;71.80;34.95;;;13.00;99.90;;;;;;5032393;28;20084;-72
2021/10/31 11:15:25;;;;;;;47.75;34.00;;;13.00;99.90;;;;;;5035183;28;20121;-72
2021/10/31 11:17:53;;;;;;;51.38;30.65;;;13.20;99.90;;;;;;5050717;28;20022;-72
2021/10/31 11:20:22;;;;;;;41.72;27.83;;;13.30;99.90;;;;;;5035959;28;20029;-72
2021/10/31 11:22:51;;;;;;;39.53;26.65;;;13.50;99.90;;;;;;5035416;28;20420;-72
2021/10/31 11:25:19;;;;;;;47.72;29.15;;;13.60;99.90;;;;;;5034585;28;20041;-72
2021/10/31 11:27:47;;;;;;;39.92;26.27;;;13.60;99.90;;;;;;5035245;28;20018;-72
2021/10/31 11:30:14;;;;;;;46.47;27.38;;;13.70;99.90;;;;;;5035763;28;20473;-72
2021/10/31 11:32:41;;;;;;;43.20;27.45;;;13.60;99.90;;;;;;5036071;28;20415;-72
2021/10/31 11:35:09;;;;;;;39.70;26.05;;;13.70;99.90;;;;;;5034796;28;20033;-72
2021/10/31 11:37:41;;;;;;;48.03;28.05;;;13.80;99.90;;;;;;5035214;28;20404;-72
2021/10/31 11:40:09;;;;;;;41.55;24.20;;;13.80;99.90;;;;;;5035445;28;20120;-72
2021/10/31 11:42:38;;;;;;;42.08;24.55;;;13.70;99.90;;;;;;5035518;28;20097;-72
2021/10/31 11:45:06;;;;;;;43.08;25.10;;;13.70;99.90;;;;;;5034410;28;20053;-72
2021/10/31 11:47:33;;;;;;;34.65;23.40;;;13.60;99.90;;;;;;5034175;28;20469;-72
2021/10/31 11:50:09;;;;;;;33.75;22.38;;;13.80;99.90;;;;;;5034909;28;20075;-72
2021/10/31 11:52:50;;;;;;;38.17;22.63;;;14.00;99.90;;;;;;5047681;28;20021;-72
2021/10/31 11:55:42;;;;;;;31.27;21.88;;;14.10;99.90;;;;;;5133195;22;20052;-68
2021/10/31 11:58:32;;;;;;;33.03;22.52;;;14.30;99.90;;;;;;5054377;28;20029;-67
2021/10/31 12:01:20;;;;;;;34.75;22.88;;;14.30;99.90;;;;;;5055206;28;20028;-68
2021/10/31 12:03:46;;;;;;;40.33;24.42;;;14.20;99.90;;;;;;5055304;28;20029;-68
2021/10/31 12:06:14;;;;;;;35.72;23.20;;;13.90;99.90;;;;;;5039204;28;20538;-67
2021/10/31 12:08:44;;;;;;;44.03;22.88;;;13.70;99.90;;;;;;5055115;28;20037;-67
2021/10/31 12:11:10;;;;;;;39.78;25.02;;;13.60;99.90;;;;;;5054801;28;20071;-67
2021/10/31 12:13:44;;;;;;;37.20;25.05;;;13.40;99.90;;;;;;5054672;28;20025;-67
2021/10/31 12:16:14;;;;;;;41.58;26.73;;;13.20;99.90;;;;;;5039568;28;20025;-67
2021/10/31 12:18:50;;;;;;;34.70;25.40;;;13.10;99.90;;;;;;5035123;28;20480;-67
2021/10/31 12:21:36;;;;;;;39.60;26.40;;;13.10;99.90;;;;;;5039843;28;20108;-67
2021/10/31 12:24:15;;;;;;;44.30;26.17;;;13.00;99.90;;;;;;5054616;28;20025;-67
2021/10/31 12:26:49;;;;;;;36.90;25.42;;;13.00;99.90;;;;;;5037895;28;20021;-67
2021/10/31 12:29:17;;;;;;;43.92;24.67;;;13.20;99.90;;;;;;5034884;28;20032;-67
2021/10/31 12:32:02;;;;;;;39.90;25.05;;;13.30;99.90;;;;;;5043154;28;20025;-68